sensor_id;sensor_type;location;lat;lon;timestamp;pressure;altitude;pressure_sealevel;temperature;humidity
77739;BME280;66904;59.926;30.404;2023-02-26T00:02:58;99997.81;;;26.87;20.99
77739;BME280;66904;59.926;30.404;2023-02-26T00:07:58;100016.81;;;26.87;20.69
77739;BME280;66904;59.926;30.404;2023-02-26T00:12:59;100021.41;;;26.86;20.95
77739;BME280;66904;59.926;30.404;2023-02-26T00:18:08;100027.06;;;26.96;20.89
77739;BME280;66904;59.926;30.404;2023-02-26T00:23:12;100019.41;;;26.93;20.54
77739;BME280;66904;59.926;30.404;2023-02-26T00:28:13;100008.28;;;26.95;20.95
77739;BME280;66904;59.926;30.404;2023-02-26T00:33:17;100007.47;;;26.94;20.82
77739;BME280;66904;59.926;30.404;2023-02-26T00:38:18;100025.19;;;26.97;21.02
77739;BME280;66904;59.926;30.404;2023-02-26T00:43:24;100028.72;;;26.97;20.78
77739;BME280;66904;59.926;30.404;2023-02-26T00:54:21;100016.91;;;27.03;20.44
77739;BME280;66904;59.926;30.404;2023-02-26T00:59:22;100013.13;;;26.93;20.67
77739;BME280;66904;59.926;30.404;2023-02-26T01:04:23;100024.81;;;26.93;20.66
77739;BME280;66904;59.926;30.404;2023-02-26T01:09:32;100028.59;;;26.92;20.50
77739;BME280;66904;59.926;30.404;2023-02-26T01:14:33;100031.56;;;26.91;20.36
77739;BME280;66904;59.926;30.404;2023-02-26T01:19:45;100025.19;;;26.97;20.13
77739;BME280;66904;59.926;30.404;2023-02-26T01:24:53;100016.56;;;26.88;20.30
77739;BME280;66904;59.926;30.404;2023-02-26T01:29:55;100021.75;;;26.90;20.35
77739;BME280;66904;59.926;30.404;2023-02-26T01:35:04;100032.97;;;26.93;20.20
77739;BME280;66904;59.926;30.404;2023-02-26T01:40:33;100034.72;;;26.99;20.21
77739;BME280;66904;59.926;30.404;2023-02-26T01:45:47;100032.72;;;26.95;20.14
77739;BME280;66904;59.926;30.404;2023-02-26T01:50:54;100034.63;;;26.94;20.04
77739;BME280;66904;59.926;30.404;2023-02-26T01:56:01;100035.00;;;26.98;19.89
77739;BME280;66904;59.926;30.404;2023-02-26T02:01:37;100027.53;;;27.05;20.26
77739;BME280;66904;59.926;30.404;2023-02-26T02:12:50;100022.00;;;27.00;19.87
77739;BME280;66904;59.926;30.404;2023-02-26T02:18:13;100024.44;;;27.01;20.29
77739;BME280;66904;59.926;30.404;2023-02-26T02:23:51;100026.25;;;27.07;20.26
77739;BME280;66904;59.926;30.404;2023-02-26T02:34:32;100021.16;;;26.99;20.16
77739;BME280;66904;59.926;30.404;2023-02-26T02:45:40;100025.28;;;27.02;20.01
77739;BME280;66904;59.926;30.404;2023-02-26T02:50:49;100025.28;;;27.02;20.07
77739;BME280;66904;59.926;30.404;2023-02-26T02:56:33;100036.84;;;27.09;20.00
77739;BME280;66904;59.926;30.404;2023-02-26T03:02:00;100025.88;;;27.04;20.13
77739;BME280;66904;59.926;30.404;2023-02-26T03:07:19;100030.72;;;27.02;19.92
77739;BME280;66904;59.926;30.404;2023-02-26T03:12:41;100030.84;;;27.07;19.65
77739;BME280;66904;59.926;30.404;2023-02-26T03:18:30;100032.94;;;27.05;19.87
77739;BME280;66904;59.926;30.404;2023-02-26T03:23:33;100040.03;;;27.06;19.62
77739;BME280;66904;59.926;30.404;2023-02-26T03:34:50;100050.91;;;27.06;19.55
77739;BME280;66904;59.926;30.404;2023-02-26T03:46:01;100034.03;;;27.04;19.88
77739;BME280;66904;59.926;30.404;2023-02-26T03:57:11;100023.88;;;26.99;19.71
77739;BME280;66904;59.926;30.404;2023-02-26T04:02:27;100038.03;;;27.01;19.63
77739;BME280;66904;59.926;30.404;2023-02-26T04:07:31;100035.75;;;27.21;19.42
77739;BME280;66904;59.926;30.404;2023-02-26T04:12:32;100029.66;;;27.03;19.66
77739;BME280;66904;59.926;30.404;2023-02-26T04:17:32;100033.69;;;27.00;20.15
77739;BME280;66904;59.926;30.404;2023-02-26T04:22:33;100033.91;;;26.99;19.50
77739;BME280;66904;59.926;30.404;2023-02-26T04:27:33;100026.22;;;26.96;19.24
77739;BME280;66904;59.926;30.404;2023-02-26T04:32:34;100027.53;;;26.93;19.81
77739;BME280;66904;59.926;30.404;2023-02-26T04:37:34;100026.00;;;26.97;19.64
77739;BME280;66904;59.926;30.404;2023-02-26T04:42:35;100025.88;;;26.92;19.43
77739;BME280;66904;59.926;30.404;2023-02-26T04:47:36;100030.84;;;26.95;19.93
77739;BME280;66904;59.926;30.404;2023-02-26T04:52:36;100024.47;;;26.90;19.35
77739;BME280;66904;59.926;30.404;2023-02-26T04:57:37;100035.34;;;26.90;19.70
77739;BME280;66904;59.926;30.404;2023-02-26T05:02:37;100035.91;;;26.92;19.68
77739;BME280;66904;59.926;30.404;2023-02-26T05:07:38;100033.56;;;26.95;19.99
77739;BME280;66904;59.926;30.404;2023-02-26T05:12:38;100032.84;;;27.00;20.27
77739;BME280;66904;59.926;30.404;2023-02-26T05:17:39;100038.38;;;27.05;20.25
77739;BME280;66904;59.926;30.404;2023-02-26T05:22:41;100048.91;;;27.13;19.92
77739;BME280;66904;59.926;30.404;2023-02-26T05:27:42;100026.47;;;27.17;20.41
77739;BME280;66904;59.926;30.404;2023-02-26T05:32:43;100022.44;;;27.20;20.73
77739;BME280;66904;59.926;30.404;2023-02-26T05:37:44;100028.94;;;27.19;20.00
77739;BME280;66904;59.926;30.404;2023-02-26T05:42:44;100038.03;;;27.13;20.08
77739;BME280;66904;59.926;30.404;2023-02-26T05:47:45;100019.03;;;27.01;19.69
77739;BME280;66904;59.926;30.404;2023-02-26T05:52:45;100047.00;;;27.02;19.65
77739;BME280;66904;59.926;30.404;2023-02-26T05:57:46;100046.06;;;26.96;20.00
77739;BME280;66904;59.926;30.404;2023-02-26T06:02:46;100053.03;;;26.92;19.22
77739;BME280;66904;59.926;30.404;2023-02-26T06:07:47;100051.03;;;26.88;19.56
77739;BME280;66904;59.926;30.404;2023-02-26T06:12:47;100064.00;;;26.86;19.35
77739;BME280;66904;59.926;30.404;2023-02-26T06:17:48;100048.19;;;26.83;19.56
77739;BME280;66904;59.926;30.404;2023-02-26T06:22:48;100077.84;;;26.84;19.53
77739;BME280;66904;59.926;30.404;2023-02-26T06:27:49;100074.28;;;26.84;19.53
77739;BME280;66904;59.926;30.404;2023-02-26T06:32:49;100074.28;;;26.84;19.24
77739;BME280;66904;59.926;30.404;2023-02-26T06:37:50;100074.88;;;26.86;19.58
77739;BME280;66904;59.926;30.404;2023-02-26T06:42:50;100073.19;;;26.85;19.71
77739;BME280;66904;59.926;30.404;2023-02-26T06:47:51;100070.97;;;26.82;19.66
77739;BME280;66904;59.926;30.404;2023-02-26T06:52:52;100088.22;;;26.87;20.03
77739;BME280;66904;59.926;30.404;2023-02-26T06:57:56;100078.06;;;26.83;20.10
77739;BME280;66904;59.926;30.404;2023-02-26T07:02:56;100087.75;;;26.90;19.71
77739;BME280;66904;59.926;30.404;2023-02-26T07:07:57;100072.66;;;26.94;20.23
77739;BME280;66904;59.926;30.404;2023-02-26T07:12:58;100081.25;;;26.91;19.96
77739;BME280;66904;59.926;30.404;2023-02-26T07:17:58;100075.09;;;26.96;20.08
77739;BME280;66904;59.926;30.404;2023-02-26T07:22:59;100089.63;;;27.01;19.96
77739;BME280;66904;59.926;30.404;2023-02-26T07:28:00;100106.25;;;27.05;20.17
77739;BME280;66904;59.926;30.404;2023-02-26T07:33:00;100093.53;;;27.05;19.93
77739;BME280;66904;59.926;30.404;2023-02-26T07:38:01;100101.91;;;27.04;19.56
77739;BME280;66904;59.926;30.404;2023-02-26T07:43:02;100108.19;;;27.04;19.43
77739;BME280;66904;59.926;30.404;2023-02-26T07:48:02;100097.44;;;26.98;20.36
77739;BME280;66904;59.926;30.404;2023-02-26T07:53:08;100111.00;;;27.09;20.44
77739;BME280;66904;59.926;30.404;2023-02-26T07:58:09;100104.88;;;27.14;20.10
77739;BME280;66904;59.926;30.404;2023-02-26T08:03:09;100105.22;;;27.17;20.72
77739;BME280;66904;59.926;30.404;2023-02-26T08:08:10;100116.66;;;27.19;20.24
77739;BME280;66904;59.926;30.404;2023-02-26T08:13:11;100116.44;;;27.21;20.30
77739;BME280;66904;59.926;30.404;2023-02-26T08:18:11;100127.63;;;27.24;20.31
77739;BME280;66904;59.926;30.404;2023-02-26T08:23:12;100118.44;;;27.26;20.56
77739;BME280;66904;59.926;30.404;2023-02-26T08:28:12;100109.94;;;27.34;20.82
77739;BME280;66904;59.926;30.404;2023-02-26T08:33:13;100136.38;;;27.38;21.08
77739;BME280;66904;59.926;30.404;2023-02-26T08:38:13;100135.09;;;27.41;21.29
77739;BME280;66904;59.926;30.404;2023-02-26T08:43:14;100143.00;;;27.42;21.47
77739;BME280;66904;59.926;30.404;2023-02-26T08:48:14;100141.81;;;27.38;21.03
77739;BME280;66904;59.926;30.404;2023-02-26T08:53:15;100130.94;;;27.38;21.38
77739;BME280;66904;59.926;30.404;2023-02-26T08:58:17;100137.69;;;27.36;20.93
77739;BME280;66904;59.926;30.404;2023-02-26T09:03:17;100137.31;;;27.32;21.31
77739;BME280;66904;59.926;30.404;2023-02-26T09:08:20;100137.59;;;27.31;21.28
77739;BME280;66904;59.926;30.404;2023-02-26T09:13:21;100152.22;;;27.30;20.59
77739;BME280;66904;59.926;30.404;2023-02-26T09:18:21;100147.47;;;27.25;20.76
77739;BME280;66904;59.926;30.404;2023-02-26T09:23:22;100148.56;;;27.24;21.10
77739;BME280;66904;59.926;30.404;2023-02-26T09:28:23;100152.66;;;27.15;21.07
77739;BME280;66904;59.926;30.404;2023-02-26T09:33:25;100158.72;;;27.17;21.11
77739;BME280;66904;59.926;30.404;2023-02-26T09:38:25;100167.09;;;27.15;21.17
77739;BME280;66904;59.926;30.404;2023-02-26T09:43:58;100170.16;;;27.19;21.29
77739;BME280;66904;59.926;30.404;2023-02-26T09:54:29;100190.69;;;27.15;21.42
77739;BME280;66904;59.926;30.404;2023-02-26T09:59:32;100191.88;;;27.07;20.84
77739;BME280;66904;59.926;30.404;2023-02-26T10:09:59;100191.78;;;27.14;20.94
77739;BME280;66904;59.926;30.404;2023-02-26T10:15:07;100191.06;;;27.07;20.81
77739;BME280;66904;59.926;30.404;2023-02-26T10:25:36;100211.25;;;27.11;20.17
77739;BME280;66904;59.926;30.404;2023-02-26T10:30:54;100215.75;;;27.17;20.13
77739;BME280;66904;59.926;30.404;2023-02-26T10:36:02;100224.59;;;27.12;19.95
77739;BME280;66904;59.926;30.404;2023-02-26T10:41:10;100222.94;;;27.11;19.86
77739;BME280;66904;59.926;30.404;2023-02-26T10:51:33;100228.59;;;27.10;19.78
77739;BME280;66904;59.926;30.404;2023-02-26T10:56:34;100232.38;;;27.09;20.22
77739;BME280;66904;59.926;30.404;2023-02-26T11:01:35;100237.81;;;27.09;19.69
77739;BME280;66904;59.926;30.404;2023-02-26T11:06:45;100240.31;;;27.10;19.73
77739;BME280;66904;59.926;30.404;2023-02-26T11:11:50;100248.97;;;27.31;19.68
77739;BME280;66904;59.926;30.404;2023-02-26T11:16:54;100248.19;;;27.12;20.17
77739;BME280;66904;59.926;30.404;2023-02-26T11:21:58;100269.09;;;27.11;20.24
77739;BME280;66904;59.926;30.404;2023-02-26T11:27:02;100268.28;;;27.11;20.89
77739;BME280;66904;59.926;30.404;2023-02-26T11:32:04;100268.28;;;27.11;21.07
77739;BME280;66904;59.926;30.404;2023-02-26T11:37:05;100283.03;;;27.03;21.47
77739;BME280;66904;59.926;30.404;2023-02-26T11:42:06;100293.78;;;27.10;21.79
77739;BME280;66904;59.926;30.404;2023-02-26T11:47:13;100275.47;;;27.05;22.52
77739;BME280;66904;59.926;30.404;2023-02-26T11:52:27;100296.03;;;27.13;21.69
77739;BME280;66904;59.926;30.404;2023-02-26T11:57:29;100293.63;;;27.05;21.90
77739;BME280;66904;59.926;30.404;2023-02-26T12:02:33;100311.22;;;27.02;21.88
77739;BME280;66904;59.926;30.404;2023-02-26T12:07:36;100313.47;;;27.05;21.79
77739;BME280;66904;59.926;30.404;2023-02-26T12:13:02;100320.59;;;27.18;21.34
77739;BME280;66904;59.926;30.404;2023-02-26T13:00:47;100383.63;;;27.38;20.47
77739;BME280;66904;59.926;30.404;2023-02-26T13:11:58;100407.09;;;27.51;19.88
77739;BME280;66904;59.926;30.404;2023-02-26T13:17:25;100412.97;;;27.48;20.14
77739;BME280;66904;59.926;30.404;2023-02-26T13:22:37;100422.75;;;27.37;20.38
77739;BME280;66904;59.926;30.404;2023-02-26T13:27:42;100429.22;;;27.36;20.51
77739;BME280;66904;59.926;30.404;2023-02-26T13:32:44;100438.41;;;27.35;20.58
77739;BME280;66904;59.926;30.404;2023-02-26T13:37:55;100448.44;;;27.35;20.21
77739;BME280;66904;59.926;30.404;2023-02-26T13:43:09;100445.63;;;27.30;20.59
77739;BME280;66904;59.926;30.404;2023-02-26T13:53:45;100479.91;;;27.42;19.94
77739;BME280;66904;59.926;30.404;2023-02-26T13:58:51;100497.16;;;27.36;19.91
77739;BME280;66904;59.926;30.404;2023-02-26T14:30:18;100563.84;;;27.32;20.18
77739;BME280;66904;59.926;30.404;2023-02-26T14:35:49;100576.91;;;27.42;20.24
77739;BME280;66904;59.926;30.404;2023-02-26T14:40:55;100572.72;;;27.46;20.70
77739;BME280;66904;59.926;30.404;2023-02-26T14:45:57;100587.91;;;27.53;20.20
77739;BME280;66904;59.926;30.404;2023-02-26T15:13:00;100624.00;;;27.60;21.11
77739;BME280;66904;59.926;30.404;2023-02-26T15:23:49;100639.75;;;27.52;21.22
77739;BME280;66904;59.926;30.404;2023-02-26T15:28:51;100652.50;;;27.51;21.31
77739;BME280;66904;59.926;30.404;2023-02-26T15:33:55;100650.41;;;27.53;21.38
77739;BME280;66904;59.926;30.404;2023-02-26T15:39:00;100654.41;;;27.51;20.75
77739;BME280;66904;59.926;30.404;2023-02-26T15:44:06;100685.88;;;27.58;21.22
77739;BME280;66904;59.926;30.404;2023-02-26T15:54:23;100696.22;;;27.68;20.72
77739;BME280;66904;59.926;30.404;2023-02-26T15:59:27;100695.91;;;27.58;20.72
77739;BME280;66904;59.926;30.404;2023-02-26T16:04:29;100717.22;;;27.61;20.44
77739;BME280;66904;59.926;30.404;2023-02-26T16:09:35;100730.38;;;27.64;20.61
77739;BME280;66904;59.926;30.404;2023-02-26T16:14:38;100734.16;;;27.63;20.82
77739;BME280;66904;59.926;30.404;2023-02-26T16:19:41;100736.03;;;27.62;20.34
77739;BME280;66904;59.926;30.404;2023-02-26T16:24:45;100751.69;;;27.67;20.53
77739;BME280;66904;59.926;30.404;2023-02-26T16:29:52;100743.66;;;27.72;20.25
77739;BME280;66904;59.926;30.404;2023-02-26T16:34:56;100756.81;;;27.75;20.86
77739;BME280;66904;59.926;30.404;2023-02-26T16:40:18;100772.22;;;27.81;20.44
77739;BME280;66904;59.926;30.404;2023-02-26T16:45:31;100777.97;;;27.73;19.67
77739;BME280;66904;59.926;30.404;2023-02-26T16:50:42;100786.38;;;27.65;20.14
77739;BME280;66904;59.926;30.404;2023-02-26T16:55:48;100795.25;;;27.60;20.28
77739;BME280;66904;59.926;30.404;2023-02-26T17:01:04;100803.84;;;27.57;19.98
77739;BME280;66904;59.926;30.404;2023-02-26T17:06:12;100805.63;;;27.39;20.14
77739;BME280;66904;59.926;30.404;2023-02-26T17:11:36;100808.78;;;27.36;19.55
77739;BME280;66904;59.926;30.404;2023-02-26T17:16:37;100812.84;;;27.27;20.00
77739;BME280;66904;59.926;30.404;2023-02-26T17:21:57;100817.59;;;27.31;20.08
77739;BME280;66904;59.926;30.404;2023-02-26T17:27:03;100833.34;;;27.22;20.31
77739;BME280;66904;59.926;30.404;2023-02-26T17:32:05;100841.03;;;27.26;21.06
77739;BME280;66904;59.926;30.404;2023-02-26T17:37:10;100839.75;;;27.28;20.85
77739;BME280;66904;59.926;30.404;2023-02-26T17:42:14;100856.00;;;27.35;21.02
77739;BME280;66904;59.926;30.404;2023-02-26T17:47:21;100860.59;;;27.41;21.11
77739;BME280;66904;59.926;30.404;2023-02-26T17:52:22;100869.34;;;27.43;20.68
77739;BME280;66904;59.926;30.404;2023-02-26T17:57:24;100883.38;;;27.46;20.30
77739;BME280;66904;59.926;30.404;2023-02-26T18:02:25;100882.53;;;27.46;20.75
77739;BME280;66904;59.926;30.404;2023-02-26T18:07:26;100895.28;;;27.45;20.01
77739;BME280;66904;59.926;30.404;2023-02-26T18:12:28;100888.56;;;27.41;20.30
77739;BME280;66904;59.926;30.404;2023-02-26T18:17:29;100896.53;;;27.43;20.02
77739;BME280;66904;59.926;30.404;2023-02-26T18:22:34;100900.09;;;27.43;20.59
77739;BME280;66904;59.926;30.404;2023-02-26T18:27:34;100897.81;;;27.40;19.77
77739;BME280;66904;59.926;30.404;2023-02-26T18:32:35;100902.59;;;27.45;20.11
77739;BME280;66904;59.926;30.404;2023-02-26T18:37:35;100911.38;;;27.47;20.40
77739;BME280;66904;59.926;30.404;2023-02-26T18:42:36;100917.41;;;27.49;20.68
77739;BME280;66904;59.926;30.404;2023-02-26T18:47:37;100927.44;;;27.48;20.45
77739;BME280;66904;59.926;30.404;2023-02-26T18:52:38;100928.09;;;27.50;20.77
77739;BME280;66904;59.926;30.404;2023-02-26T18:57:39;100944.38;;;27.50;20.43
77739;BME280;66904;59.926;30.404;2023-02-26T19:02:42;100951.91;;;27.48;20.70
77739;BME280;66904;59.926;30.404;2023-02-26T19:07:43;100958.03;;;27.44;20.82
77739;BME280;66904;59.926;30.404;2023-02-26T19:12:44;100969.91;;;27.43;20.82
77739;BME280;66904;59.926;30.404;2023-02-26T19:17:44;100982.47;;;27.37;20.94
77739;BME280;66904;59.926;30.404;2023-02-26T19:22:45;100988.16;;;27.29;20.65
77739;BME280;66904;59.926;30.404;2023-02-26T19:27:46;100995.91;;;27.26;20.38
77739;BME280;66904;59.926;30.404;2023-02-26T19:32:46;101012.63;;;27.22;20.11
77739;BME280;66904;59.926;30.404;2023-02-26T19:37:47;101008.69;;;27.18;20.18
77739;BME280;66904;59.926;30.404;2023-02-26T19:42:47;101015.38;;;27.16;19.93
77739;BME280;66904;59.926;30.404;2023-02-26T19:47:48;101007.66;;;27.13;20.42
77739;BME280;66904;59.926;30.404;2023-02-26T19:52:48;101016.84;;;27.12;20.29
77739;BME280;66904;59.926;30.404;2023-02-26T19:57:49;101030.66;;;27.10;20.08
77739;BME280;66904;59.926;30.404;2023-02-26T20:02:49;101020.88;;;26.96;20.07
77739;BME280;66904;59.926;30.404;2023-02-26T20:07:50;101051.16;;;27.00;19.88
77739;BME280;66904;59.926;30.404;2023-02-26T20:12:50;101054.72;;;27.00;20.21
77739;BME280;66904;59.926;30.404;2023-02-26T20:17:51;101060.75;;;27.02;20.59
77739;BME280;66904;59.926;30.404;2023-02-26T20:22:51;101064.31;;;27.03;20.70
77739;BME280;66904;59.926;30.404;2023-02-26T20:27:52;101062.63;;;27.02;20.71
77739;BME280;66904;59.926;30.404;2023-02-26T20:32:52;101072.47;;;27.03;20.87
77739;BME280;66904;59.926;30.404;2023-02-26T20:37:53;101091.47;;;27.09;20.45
77739;BME280;66904;59.926;30.404;2023-02-26T20:42:53;101100.84;;;27.13;21.08
77739;BME280;66904;59.926;30.404;2023-02-26T20:47:54;101117.75;;;27.15;20.99
77739;BME280;66904;59.926;30.404;2023-02-26T20:52:55;101113.19;;;27.16;21.15
77739;BME280;66904;59.926;30.404;2023-02-26T20:57:55;101130.31;;;27.10;20.77
77739;BME280;66904;59.926;30.404;2023-02-26T21:02:56;101142.44;;;27.14;20.90
77739;BME280;66904;59.926;30.404;2023-02-26T21:07:56;101153.94;;;27.09;20.92
77739;BME280;66904;59.926;30.404;2023-02-26T21:12:59;101168.34;;;27.10;20.70
77739;BME280;66904;59.926;30.404;2023-02-26T21:18:00;101174.81;;;27.09;20.55
77739;BME280;66904;59.926;30.404;2023-02-26T21:23:00;101191.97;;;27.09;21.24
77739;BME280;66904;59.926;30.404;2023-02-26T21:28:01;101204.28;;;27.12;21.43
77739;BME280;66904;59.926;30.404;2023-02-26T21:33:02;101206.78;;;27.20;22.01
77739;BME280;66904;59.926;30.404;2023-02-26T21:38:02;101219.72;;;27.31;22.80
77739;BME280;66904;59.926;30.404;2023-02-26T21:43:03;101222.03;;;27.41;22.83
77739;BME280;66904;59.926;30.404;2023-02-26T21:48:04;101228.72;;;27.45;22.49
77739;BME280;66904;59.926;30.404;2023-02-26T21:53:04;101234.78;;;27.53;22.65
77739;BME280;66904;59.926;30.404;2023-02-26T21:58:05;101236.44;;;27.54;22.59
77739;BME280;66904;59.926;30.404;2023-02-26T22:03:05;101250.47;;;27.51;22.31
77739;BME280;66904;59.926;30.404;2023-02-26T22:08:06;101256.56;;;27.47;22.34
77739;BME280;66904;59.926;30.404;2023-02-26T22:13:06;101267.41;;;27.40;21.95
77739;BME280;66904;59.926;30.404;2023-02-26T22:18:07;101269.28;;;27.33;22.21
77739;BME280;66904;59.926;30.404;2023-02-26T22:23:08;101282.22;;;27.31;21.67
77739;BME280;66904;59.926;30.404;2023-02-26T22:28:08;101293.75;;;27.27;22.03
77739;BME280;66904;59.926;30.404;2023-02-26T22:33:09;101311.50;;;27.22;21.77
77739;BME280;66904;59.926;30.404;2023-02-26T22:38:18;101310.88;;;27.20;21.53
77739;BME280;66904;59.926;30.404;2023-02-26T22:43:37;101326.53;;;27.12;21.25
77739;BME280;66904;59.926;30.404;2023-02-26T22:48:38;101332.19;;;27.10;21.86
77739;BME280;66904;59.926;30.404;2023-02-26T22:53:41;101340.09;;;27.12;22.18
77739;BME280;66904;59.926;30.404;2023-02-26T22:58:45;101352.66;;;27.13;22.14
77739;BME280;66904;59.926;30.404;2023-02-26T23:03:45;101367.91;;;27.14;22.15
77739;BME280;66904;59.926;30.404;2023-02-26T23:09:01;101366.66;;;27.10;22.58
77739;BME280;66904;59.926;30.404;2023-02-26T23:14:25;101400.94;;;27.17;21.86
77739;BME280;66904;59.926;30.404;2023-02-26T23:19:42;101402.59;;;27.18;21.79
77739;BME280;66904;59.926;30.404;2023-02-26T23:24:42;101402.59;;;27.18;22.01
77739;BME280;66904;59.926;30.404;2023-02-26T23:35:39;101417.25;;;27.17;21.62
77739;BME280;66904;59.926;30.404;2023-02-26T23:40:40;101434.16;;;27.19;22.11
77739;BME280;66904;59.926;30.404;2023-02-26T23:51:28;101455.91;;;27.19;21.59
77739;BME280;66904;59.926;30.404;2023-02-26T23:56:28;101459.66;;;27.18;22.06
